sensor_id;sensor_type;location;lat;lon;timestamp;P1;durP1;ratioP1;P2;durP2;ratioP2
22937;SDS011;11634;42.734;23.298;2022-08-05T00:01:42;5.35;;;4.75;;
22937;SDS011;11634;42.734;23.298;2022-08-05T00:04:08;5.28;;;4.80;;
22937;SDS011;11634;42.734;23.298;2022-08-05T00:06:33;5.88;;;4.40;;
22937;SDS011;11634;42.734;23.298;2022-08-05T00:08:59;5.30;;;4.80;;
22937;SDS011;11634;42.734;23.298;2022-08-05T00:11:26;4.95;;;4.45;;
22937;SDS011;11634;42.734;23.298;2022-08-05T00:13:52;5.43;;;4.93;;
22937;SDS011;11634;42.734;23.298;2022-08-05T00:16:19;5.55;;;5.00;;
22937;SDS011;11634;42.734;23.298;2022-08-05T00:18:45;5.85;;;5.35;;
22937;SDS011;11634;42.734;23.298;2022-08-05T00:21:11;6.75;;;6.00;;
22937;SDS011;11634;42.734;23.298;2022-08-05T00:23:37;6.82;;;5.90;;
22937;SDS011;11634;42.734;23.298;2022-08-05T00:26:02;7.95;;;6.30;;
22937;SDS011;11634;42.734;23.298;2022-08-05T00:28:28;5.88;;;5.32;;
22937;SDS011;11634;42.734;23.298;2022-08-05T00:30:53;6.18;;;5.57;;
22937;SDS011;11634;42.734;23.298;2022-08-05T00:33:18;7.82;;;5.57;;
22937;SDS011;11634;42.734;23.298;2022-08-05T00:35:44;8.68;;;5.43;;
22937;SDS011;11634;42.734;23.298;2022-08-05T00:38:09;6.43;;;5.80;;
22937;SDS011;11634;42.734;23.298;2022-08-05T00:40:44;6.75;;;6.03;;
22937;SDS011;11634;42.734;23.298;2022-08-05T00:43:10;6.32;;;5.68;;
22937;SDS011;11634;42.734;23.298;2022-08-05T00:45:35;7.15;;;5.35;;
22937;SDS011;11634;42.734;23.298;2022-08-05T00:48:01;7.57;;;5.40;;
22937;SDS011;11634;42.734;23.298;2022-08-05T00:50:28;6.38;;;5.75;;
22937;SDS011;11634;42.734;23.298;2022-08-05T00:52:53;7.70;;;5.53;;
22937;SDS011;11634;42.734;23.298;2022-08-05T00:55:18;5.50;;;5.05;;
22937;SDS011;11634;42.734;23.298;2022-08-05T00:57:43;4.47;;;4.07;;
22937;SDS011;11634;42.734;23.298;2022-08-05T01:00:09;5.18;;;4.78;;
22937;SDS011;11634;42.734;23.298;2022-08-05T01:02:35;5.07;;;4.40;;
22937;SDS011;11634;42.734;23.298;2022-08-05T01:05:01;5.10;;;4.70;;
22937;SDS011;11634;42.734;23.298;2022-08-05T01:07:26;5.32;;;4.78;;
22937;SDS011;11634;42.734;23.298;2022-08-05T01:09:51;5.25;;;4.65;;
22937;SDS011;11634;42.734;23.298;2022-08-05T01:12:17;7.15;;;4.82;;
22937;SDS011;11634;42.734;23.298;2022-08-05T01:17:12;5.90;;;4.45;;
22937;SDS011;11634;42.734;23.298;2022-08-05T01:19:45;5.68;;;5.07;;
22937;SDS011;11634;42.734;23.298;2022-08-05T01:22:28;5.53;;;4.60;;
22937;SDS011;11634;42.734;23.298;2022-08-05T01:29:47;6.53;;;5.88;;
22937;SDS011;11634;42.734;23.298;2022-08-05T01:32:15;5.45;;;4.78;;
22937;SDS011;11634;42.734;23.298;2022-08-05T01:34:50;6.00;;;5.40;;
22937;SDS011;11634;42.734;23.298;2022-08-05T01:37:25;7.05;;;4.93;;
22937;SDS011;11634;42.734;23.298;2022-08-05T01:39:54;5.97;;;5.32;;
22937;SDS011;11634;42.734;23.298;2022-08-05T01:42:20;5.43;;;4.93;;
22937;SDS011;11634;42.734;23.298;2022-08-05T01:44:47;8.07;;;5.32;;
22937;SDS011;11634;42.734;23.298;2022-08-05T01:47:14;7.10;;;5.55;;
22937;SDS011;11634;42.734;23.298;2022-08-05T01:49:41;7.13;;;5.60;;
22937;SDS011;11634;42.734;23.298;2022-08-05T01:52:07;6.28;;;5.70;;
22937;SDS011;11634;42.734;23.298;2022-08-05T01:54:40;5.82;;;5.30;;
22937;SDS011;11634;42.734;23.298;2022-08-05T01:57:07;7.75;;;5.82;;
22937;SDS011;11634;42.734;23.298;2022-08-05T01:59:33;6.28;;;5.78;;
22937;SDS011;11634;42.734;23.298;2022-08-05T02:02:00;6.43;;;5.70;;
22937;SDS011;11634;42.734;23.298;2022-08-05T02:04:27;7.20;;;5.82;;
22937;SDS011;11634;42.734;23.298;2022-08-05T02:06:53;6.60;;;5.95;;
22937;SDS011;11634;42.734;23.298;2022-08-05T02:09:18;6.30;;;5.78;;
22937;SDS011;11634;42.734;23.298;2022-08-05T02:11:46;7.53;;;6.40;;
22937;SDS011;11634;42.734;23.298;2022-08-05T02:14:57;6.60;;;6.00;;
22937;SDS011;11634;42.734;23.298;2022-08-05T02:17:11;8.95;;;6.40;;
22937;SDS011;11634;42.734;23.298;2022-08-05T02:19:42;6.32;;;5.72;;
22937;SDS011;11634;42.734;23.298;2022-08-05T02:24:36;7.57;;;6.40;;
22937;SDS011;11634;42.734;23.298;2022-08-05T02:27:02;9.18;;;5.75;;
22937;SDS011;11634;42.734;23.298;2022-08-05T02:29:29;6.50;;;5.90;;
22937;SDS011;11634;42.734;23.298;2022-08-05T02:31:56;6.38;;;5.88;;
22937;SDS011;11634;42.734;23.298;2022-08-05T02:34:22;6.13;;;5.60;;
22937;SDS011;11634;42.734;23.298;2022-08-05T02:36:52;7.20;;;5.32;;
22937;SDS011;11634;42.734;23.298;2022-08-05T02:39:19;7.15;;;5.05;;
22937;SDS011;11634;42.734;23.298;2022-08-05T02:41:48;6.05;;;5.50;;
22937;SDS011;11634;42.734;23.298;2022-08-05T02:44:15;6.60;;;5.28;;
22937;SDS011;11634;42.734;23.298;2022-08-05T02:46:43;6.00;;;5.50;;
22937;SDS011;11634;42.734;23.298;2022-08-05T02:49:09;6.72;;;6.00;;
22937;SDS011;11634;42.734;23.298;2022-08-05T02:51:36;5.43;;;4.93;;
22937;SDS011;11634;42.734;23.298;2022-08-05T02:54:01;6.25;;;5.68;;
22937;SDS011;11634;42.734;23.298;2022-08-05T02:56:27;6.38;;;5.10;;
22937;SDS011;11634;42.734;23.298;2022-08-05T02:58:53;6.05;;;5.45;;
22937;SDS011;11634;42.734;23.298;2022-08-05T03:01:22;6.38;;;5.55;;
22937;SDS011;11634;42.734;23.298;2022-08-05T03:03:49;6.95;;;5.53;;
22937;SDS011;11634;42.734;23.298;2022-08-05T03:06:15;6.45;;;5.80;;
22937;SDS011;11634;42.734;23.298;2022-08-05T03:08:40;6.78;;;5.65;;
22937;SDS011;11634;42.734;23.298;2022-08-05T03:11:21;6.68;;;6.00;;
22937;SDS011;11634;42.734;23.298;2022-08-05T03:13:47;6.97;;;6.20;;
22937;SDS011;11634;42.734;23.298;2022-08-05T03:16:13;7.78;;;6.30;;
22937;SDS011;11634;42.734;23.298;2022-08-05T03:18:38;6.15;;;5.65;;
22937;SDS011;11634;42.734;23.298;2022-08-05T03:21:04;5.85;;;5.00;;
22937;SDS011;11634;42.734;23.298;2022-08-05T03:23:29;6.13;;;5.60;;
22937;SDS011;11634;42.734;23.298;2022-08-05T03:25:55;5.72;;;5.22;;
22937;SDS011;11634;42.734;23.298;2022-08-05T03:28:20;9.30;;;5.78;;
22937;SDS011;11634;42.734;23.298;2022-08-05T03:30:46;6.22;;;5.63;;
22937;SDS011;11634;42.734;23.298;2022-08-05T03:33:13;6.85;;;6.25;;
22937;SDS011;11634;42.734;23.298;2022-08-05T03:35:38;6.80;;;6.20;;
22937;SDS011;11634;42.734;23.298;2022-08-05T03:38:03;6.35;;;5.75;;
22937;SDS011;11634;42.734;23.298;2022-08-05T03:40:29;7.22;;;6.00;;
22937;SDS011;11634;42.734;23.298;2022-08-05T03:42:54;6.18;;;5.45;;
22937;SDS011;11634;42.734;23.298;2022-08-05T03:45:20;6.80;;;5.22;;
22937;SDS011;11634;42.734;23.298;2022-08-05T03:47:45;7.05;;;5.93;;
22937;SDS011;11634;42.734;23.298;2022-08-05T03:50:11;6.38;;;5.88;;
22937;SDS011;11634;42.734;23.298;2022-08-05T03:52:39;7.47;;;6.78;;
22937;SDS011;11634;42.734;23.298;2022-08-05T03:55:06;11.15;;;8.50;;
22937;SDS011;11634;42.734;23.298;2022-08-05T03:57:34;8.73;;;7.07;;
22937;SDS011;11634;42.734;23.298;2022-08-05T04:00:03;9.52;;;7.93;;
22937;SDS011;11634;42.734;23.298;2022-08-05T04:02:40;8.73;;;7.82;;
22937;SDS011;11634;42.734;23.298;2022-08-05T04:05:07;7.78;;;7.05;;
22937;SDS011;11634;42.734;23.298;2022-08-05T04:07:33;8.55;;;7.13;;
22937;SDS011;11634;42.734;23.298;2022-08-05T04:09:59;8.25;;;7.35;;
22937;SDS011;11634;42.734;23.298;2022-08-05T04:12:24;9.10;;;7.28;;
22937;SDS011;11634;42.734;23.298;2022-08-05T04:14:50;7.93;;;7.13;;
22937;SDS011;11634;42.734;23.298;2022-08-05T04:17:15;10.93;;;6.40;;
22937;SDS011;11634;42.734;23.298;2022-08-05T04:19:42;7.20;;;6.60;;
22937;SDS011;11634;42.734;23.298;2022-08-05T04:22:09;7.13;;;6.43;;
22937;SDS011;11634;42.734;23.298;2022-08-05T04:24:37;8.38;;;6.28;;
22937;SDS011;11634;42.734;23.298;2022-08-05T04:27:04;11.15;;;6.75;;
22937;SDS011;11634;42.734;23.298;2022-08-05T04:29:30;7.05;;;6.38;;
22937;SDS011;11634;42.734;23.298;2022-08-05T04:31:55;8.32;;;6.50;;
22937;SDS011;11634;42.734;23.298;2022-08-05T04:34:20;8.27;;;6.78;;
22937;SDS011;11634;42.734;23.298;2022-08-05T04:36:46;8.82;;;6.97;;
22937;SDS011;11634;42.734;23.298;2022-08-05T04:39:11;8.63;;;6.88;;
22937;SDS011;11634;42.734;23.298;2022-08-05T04:41:37;7.50;;;6.40;;
22937;SDS011;11634;42.734;23.298;2022-08-05T04:44:02;8.48;;;6.55;;
22937;SDS011;11634;42.734;23.298;2022-08-05T04:46:27;7.43;;;6.70;;
22937;SDS011;11634;42.734;23.298;2022-08-05T04:48:53;7.70;;;5.85;;
22937;SDS011;11634;42.734;23.298;2022-08-05T04:51:18;7.28;;;5.57;;
22937;SDS011;11634;42.734;23.298;2022-08-05T04:53:47;7.05;;;6.25;;
22937;SDS011;11634;42.734;23.298;2022-08-05T04:56:13;8.48;;;6.38;;
22937;SDS011;11634;42.734;23.298;2022-08-05T04:58:39;6.30;;;5.38;;
22937;SDS011;11634;42.734;23.298;2022-08-05T05:01:04;7.57;;;5.35;;
22937;SDS011;11634;42.734;23.298;2022-08-05T05:03:30;6.07;;;5.47;;
22937;SDS011;11634;42.734;23.298;2022-08-05T05:05:55;5.03;;;4.53;;
22937;SDS011;11634;42.734;23.298;2022-08-05T05:08:21;7.88;;;5.10;;
22937;SDS011;11634;42.734;23.298;2022-08-05T05:10:46;6.80;;;4.70;;
22937;SDS011;11634;42.734;23.298;2022-08-05T05:13:12;5.38;;;4.47;;
22937;SDS011;11634;42.734;23.298;2022-08-05T05:15:38;4.55;;;4.03;;
22937;SDS011;11634;42.734;23.298;2022-08-05T05:18:04;4.80;;;4.40;;
22937;SDS011;11634;42.734;23.298;2022-08-05T05:20:29;5.10;;;4.47;;
22937;SDS011;11634;42.734;23.298;2022-08-05T05:22:56;6.57;;;4.55;;
22937;SDS011;11634;42.734;23.298;2022-08-05T05:25:21;4.78;;;4.22;;
22937;SDS011;11634;42.734;23.298;2022-08-05T05:27:46;5.82;;;4.53;;
22937;SDS011;11634;42.734;23.298;2022-08-05T05:30:13;6.30;;;4.20;;
22937;SDS011;11634;42.734;23.298;2022-08-05T05:32:38;5.25;;;4.30;;
22937;SDS011;11634;42.734;23.298;2022-08-05T05:35:04;7.38;;;4.75;;
22937;SDS011;11634;42.734;23.298;2022-08-05T05:37:29;5.00;;;4.60;;
22937;SDS011;11634;42.734;23.298;2022-08-05T05:39:55;5.47;;;4.80;;
22937;SDS011;11634;42.734;23.298;2022-08-05T05:42:20;6.90;;;4.88;;
22937;SDS011;11634;42.734;23.298;2022-08-05T05:44:45;6.57;;;5.45;;
22937;SDS011;11634;42.734;23.298;2022-08-05T05:47:11;8.75;;;5.65;;
22937;SDS011;11634;42.734;23.298;2022-08-05T05:49:36;7.38;;;6.07;;
22937;SDS011;11634;42.734;23.298;2022-08-05T05:52:02;7.32;;;5.97;;
22937;SDS011;11634;42.734;23.298;2022-08-05T05:54:27;6.68;;;5.97;;
22937;SDS011;11634;42.734;23.298;2022-08-05T05:56:52;8.05;;;5.88;;
22937;SDS011;11634;42.734;23.298;2022-08-05T05:59:18;7.05;;;6.18;;
22937;SDS011;11634;42.734;23.298;2022-08-05T06:01:43;10.43;;;5.88;;
22937;SDS011;11634;42.734;23.298;2022-08-05T06:04:09;9.38;;;5.93;;
22937;SDS011;11634;42.734;23.298;2022-08-05T06:06:35;7.55;;;6.00;;
22937;SDS011;11634;42.734;23.298;2022-08-05T06:09:02;7.78;;;5.57;;
22937;SDS011;11634;42.734;23.298;2022-08-05T06:11:31;13.40;;;5.90;;
22937;SDS011;11634;42.734;23.298;2022-08-05T06:13:59;13.15;;;5.72;;
22937;SDS011;11634;42.734;23.298;2022-08-05T06:16:24;12.55;;;6.07;;
22937;SDS011;11634;42.734;23.298;2022-08-05T06:18:50;13.35;;;6.22;;
22937;SDS011;11634;42.734;23.298;2022-08-05T06:21:16;8.07;;;5.50;;
22937;SDS011;11634;42.734;23.298;2022-08-05T06:23:41;13.60;;;6.20;;
22937;SDS011;11634;42.734;23.298;2022-08-05T06:26:07;15.32;;;6.32;;
22937;SDS011;11634;42.734;23.298;2022-08-05T06:28:32;12.40;;;5.72;;
22937;SDS011;11634;42.734;23.298;2022-08-05T06:30:58;9.63;;;5.55;;
22937;SDS011;11634;42.734;23.298;2022-08-05T06:33:23;7.63;;;5.72;;
22937;SDS011;11634;42.734;23.298;2022-08-05T06:35:49;12.23;;;6.03;;
22937;SDS011;11634;42.734;23.298;2022-08-05T06:38:14;14.52;;;6.30;;
22937;SDS011;11634;42.734;23.298;2022-08-05T06:40:43;14.50;;;5.65;;
22937;SDS011;11634;42.734;23.298;2022-08-05T06:43:10;14.73;;;6.00;;
22937;SDS011;11634;42.734;23.298;2022-08-05T06:45:36;15.90;;;6.07;;
22937;SDS011;11634;42.734;23.298;2022-08-05T06:48:01;13.98;;;6.60;;
22937;SDS011;11634;42.734;23.298;2022-08-05T06:50:27;10.98;;;6.10;;
22937;SDS011;11634;42.734;23.298;2022-08-05T06:52:52;11.68;;;5.57;;
22937;SDS011;11634;42.734;23.298;2022-08-05T06:55:18;9.93;;;6.38;;
22937;SDS011;11634;42.734;23.298;2022-08-05T06:57:43;7.78;;;6.10;;
22937;SDS011;11634;42.734;23.298;2022-08-05T07:00:08;10.65;;;5.90;;
22937;SDS011;11634;42.734;23.298;2022-08-05T07:02:44;10.98;;;6.85;;
22937;SDS011;11634;42.734;23.298;2022-08-05T07:05:10;12.45;;;6.07;;
22937;SDS011;11634;42.734;23.298;2022-08-05T07:07:36;9.93;;;6.10;;
22937;SDS011;11634;42.734;23.298;2022-08-05T07:10:01;9.40;;;5.80;;
22937;SDS011;11634;42.734;23.298;2022-08-05T07:12:26;13.25;;;6.43;;
22937;SDS011;11634;42.734;23.298;2022-08-05T07:15:10;16.83;;;6.57;;
22937;SDS011;11634;42.734;23.298;2022-08-05T07:17:55;10.25;;;6.47;;
22937;SDS011;11634;42.734;23.298;2022-08-05T07:20:20;9.05;;;6.38;;
22937;SDS011;11634;42.734;23.298;2022-08-05T07:22:46;7.38;;;5.90;;
22937;SDS011;11634;42.734;23.298;2022-08-05T07:25:11;14.13;;;5.85;;
22937;SDS011;11634;42.734;23.298;2022-08-05T07:27:37;10.18;;;6.30;;
22937;SDS011;11634;42.734;23.298;2022-08-05T07:30:02;8.98;;;6.13;;
22937;SDS011;11634;42.734;23.298;2022-08-05T07:32:27;12.32;;;6.47;;
22937;SDS011;11634;42.734;23.298;2022-08-05T07:34:53;8.35;;;5.85;;
22937;SDS011;11634;42.734;23.298;2022-08-05T07:37:19;10.85;;;5.47;;
22937;SDS011;11634;42.734;23.298;2022-08-05T07:39:45;7.72;;;5.80;;
22937;SDS011;11634;42.734;23.298;2022-08-05T07:42:12;11.20;;;6.00;;
22937;SDS011;11634;42.734;23.298;2022-08-05T07:44:37;7.90;;;5.72;;
22937;SDS011;11634;42.734;23.298;2022-08-05T07:47:03;9.20;;;5.50;;
22937;SDS011;11634;42.734;23.298;2022-08-05T07:49:31;8.82;;;5.55;;
22937;SDS011;11634;42.734;23.298;2022-08-05T07:51:56;8.02;;;5.57;;
22937;SDS011;11634;42.734;23.298;2022-08-05T07:54:22;6.85;;;4.80;;
22937;SDS011;11634;42.734;23.298;2022-08-05T07:56:50;7.45;;;5.13;;
22937;SDS011;11634;42.734;23.298;2022-08-05T07:59:16;10.75;;;5.50;;
22937;SDS011;11634;42.734;23.298;2022-08-05T08:01:41;9.07;;;5.60;;
22937;SDS011;11634;42.734;23.298;2022-08-05T08:04:07;12.40;;;5.68;;
22937;SDS011;11634;42.734;23.298;2022-08-05T08:06:32;11.07;;;5.72;;
22937;SDS011;11634;42.734;23.298;2022-08-05T08:08:59;10.93;;;6.25;;
22937;SDS011;11634;42.734;23.298;2022-08-05T08:11:25;7.80;;;5.72;;
22937;SDS011;11634;42.734;23.298;2022-08-05T08:13:53;9.43;;;5.65;;
22937;SDS011;11634;42.734;23.298;2022-08-05T08:16:19;7.80;;;5.72;;
22937;SDS011;11634;42.734;23.298;2022-08-05T08:18:44;9.98;;;5.57;;
22937;SDS011;11634;42.734;23.298;2022-08-05T08:21:10;9.27;;;5.50;;
22937;SDS011;11634;42.734;23.298;2022-08-05T08:23:35;12.80;;;5.80;;
22937;SDS011;11634;42.734;23.298;2022-08-05T08:26:01;8.55;;;5.78;;
22937;SDS011;11634;42.734;23.298;2022-08-05T08:28:26;6.90;;;5.00;;
22937;SDS011;11634;42.734;23.298;2022-08-05T08:30:51;12.35;;;5.05;;
22937;SDS011;11634;42.734;23.298;2022-08-05T08:33:17;7.82;;;5.47;;
22937;SDS011;11634;42.734;23.298;2022-08-05T08:35:42;6.07;;;4.95;;
22937;SDS011;11634;42.734;23.298;2022-08-05T08:38:08;7.10;;;5.72;;
22937;SDS011;11634;42.734;23.298;2022-08-05T08:40:33;6.22;;;4.50;;
22937;SDS011;11634;42.734;23.298;2022-08-05T08:43:05;10.68;;;4.90;;
22937;SDS011;11634;42.734;23.298;2022-08-05T08:45:30;5.10;;;4.43;;
22937;SDS011;11634;42.734;23.298;2022-08-05T08:47:57;4.97;;;4.45;;
22937;SDS011;11634;42.734;23.298;2022-08-05T08:50:28;5.45;;;4.50;;
22937;SDS011;11634;42.734;23.298;2022-08-05T08:52:58;7.95;;;4.78;;
22937;SDS011;11634;42.734;23.298;2022-08-05T08:55:24;6.75;;;4.75;;
22937;SDS011;11634;42.734;23.298;2022-08-05T08:57:51;5.38;;;3.95;;
22937;SDS011;11634;42.734;23.298;2022-08-05T09:00:17;5.40;;;3.95;;
22937;SDS011;11634;42.734;23.298;2022-08-05T09:02:43;9.13;;;4.88;;
22937;SDS011;11634;42.734;23.298;2022-08-05T09:05:10;3.92;;;3.53;;
22937;SDS011;11634;42.734;23.298;2022-08-05T09:07:36;4.03;;;3.63;;
22937;SDS011;11634;42.734;23.298;2022-08-05T09:10:02;5.72;;;3.88;;
22937;SDS011;11634;42.734;23.298;2022-08-05T09:12:27;7.18;;;4.18;;
22937;SDS011;11634;42.734;23.298;2022-08-05T09:14:53;6.63;;;3.80;;
22937;SDS011;11634;42.734;23.298;2022-08-05T09:17:18;4.70;;;3.53;;
22937;SDS011;11634;42.734;23.298;2022-08-05T09:19:44;5.30;;;3.53;;
22937;SDS011;11634;42.734;23.298;2022-08-05T09:22:09;5.10;;;3.92;;
22937;SDS011;11634;42.734;23.298;2022-08-05T09:24:35;9.45;;;3.60;;
22937;SDS011;11634;42.734;23.298;2022-08-05T09:27:05;5.82;;;3.70;;
22937;SDS011;11634;42.734;23.298;2022-08-05T09:29:41;6.38;;;3.63;;
22937;SDS011;11634;42.734;23.298;2022-08-05T09:32:10;4.28;;;2.83;;
22937;SDS011;11634;42.734;23.298;2022-08-05T09:34:52;5.38;;;2.72;;
22937;SDS011;11634;42.734;23.298;2022-08-05T09:37:18;4.03;;;2.80;;
22937;SDS011;11634;42.734;23.298;2022-08-05T09:39:44;3.08;;;2.35;;
22937;SDS011;11634;42.734;23.298;2022-08-05T09:42:10;5.35;;;3.03;;
22937;SDS011;11634;42.734;23.298;2022-08-05T09:44:40;6.13;;;3.13;;
22937;SDS011;11634;42.734;23.298;2022-08-05T09:47:16;4.72;;;3.28;;
22937;SDS011;11634;42.734;23.298;2022-08-05T09:49:45;4.57;;;3.50;;
22937;SDS011;11634;42.734;23.298;2022-08-05T09:52:24;4.40;;;2.83;;
22937;SDS011;11634;42.734;23.298;2022-08-05T09:55:00;5.35;;;3.33;;
22937;SDS011;11634;42.734;23.298;2022-08-05T09:57:36;3.78;;;3.42;;
22937;SDS011;11634;42.734;23.298;2022-08-05T10:00:12;4.97;;;3.33;;
22937;SDS011;11634;42.734;23.298;2022-08-05T10:02:42;5.63;;;3.55;;
22937;SDS011;11634;42.734;23.298;2022-08-05T10:05:09;5.00;;;3.45;;
22937;SDS011;11634;42.734;23.298;2022-08-05T10:10:10;5.30;;;3.50;;
22937;SDS011;11634;42.734;23.298;2022-08-05T10:12:42;6.35;;;3.70;;
22937;SDS011;11634;42.734;23.298;2022-08-05T10:15:18;4.38;;;3.65;;
22937;SDS011;11634;42.734;23.298;2022-08-05T10:17:44;6.15;;;3.10;;
22937;SDS011;11634;42.734;23.298;2022-08-05T10:20:26;6.18;;;3.45;;
22937;SDS011;11634;42.734;23.298;2022-08-05T10:22:51;3.70;;;3.40;;
22937;SDS011;11634;42.734;23.298;2022-08-05T10:25:17;3.78;;;3.30;;
22937;SDS011;11634;42.734;23.298;2022-08-05T10:27:43;5.57;;;3.40;;
22937;SDS011;11634;42.734;23.298;2022-08-05T10:30:08;3.55;;;3.30;;
22937;SDS011;11634;42.734;23.298;2022-08-05T10:32:34;3.58;;;3.25;;
22937;SDS011;11634;42.734;23.298;2022-08-05T10:34:59;5.10;;;4.00;;
22937;SDS011;11634;42.734;23.298;2022-08-05T10:37:25;4.20;;;3.17;;
22937;SDS011;11634;42.734;23.298;2022-08-05T10:39:53;4.35;;;3.63;;
22937;SDS011;11634;42.734;23.298;2022-08-05T10:42:21;4.03;;;3.22;;
22937;SDS011;11634;42.734;23.298;2022-08-05T10:44:47;5.65;;;3.50;;
22937;SDS011;11634;42.734;23.298;2022-08-05T10:47:14;5.25;;;3.47;;
22937;SDS011;11634;42.734;23.298;2022-08-05T10:50:01;6.22;;;3.40;;
22937;SDS011;11634;42.734;23.298;2022-08-05T10:55:05;3.80;;;3.50;;
22937;SDS011;11634;42.734;23.298;2022-08-05T10:57:32;3.47;;;3.17;;
22937;SDS011;11634;42.734;23.298;2022-08-05T11:02:32;4.93;;;3.50;;
22937;SDS011;11634;42.734;23.298;2022-08-05T11:04:57;7.20;;;3.63;;
22937;SDS011;11634;42.734;23.298;2022-08-05T11:07:23;3.95;;;3.58;;
22937;SDS011;11634;42.734;23.298;2022-08-05T11:09:49;5.95;;;3.50;;
22937;SDS011;11634;42.734;23.298;2022-08-05T11:17:43;4.13;;;3.45;;
22937;SDS011;11634;42.734;23.298;2022-08-05T11:22:53;3.83;;;3.53;;
22937;SDS011;11634;42.734;23.298;2022-08-05T11:25:37;3.33;;;3.03;;
22937;SDS011;11634;42.734;23.298;2022-08-05T11:33:31;3.75;;;3.17;;
22937;SDS011;11634;42.734;23.298;2022-08-05T11:35:58;5.38;;;3.30;;
22937;SDS011;11634;42.734;23.298;2022-08-05T11:41:20;4.90;;;3.22;;
22937;SDS011;11634;42.734;23.298;2022-08-05T11:43:57;4.43;;;3.25;;
22937;SDS011;11634;42.734;23.298;2022-08-05T11:46:30;3.30;;;3.03;;
22937;SDS011;11634;42.734;23.298;2022-08-05T11:48:56;3.92;;;2.83;;
22937;SDS011;11634;42.734;23.298;2022-08-05T11:51:22;3.65;;;3.30;;
22937;SDS011;11634;42.734;23.298;2022-08-05T11:53:48;4.28;;;3.25;;
22937;SDS011;11634;42.734;23.298;2022-08-05T11:56:13;4.03;;;2.90;;
22937;SDS011;11634;42.734;23.298;2022-08-05T11:58:40;5.03;;;3.60;;
22937;SDS011;11634;42.734;23.298;2022-08-05T12:01:06;4.00;;;2.95;;
22937;SDS011;11634;42.734;23.298;2022-08-05T12:03:42;4.40;;;3.10;;
22937;SDS011;11634;42.734;23.298;2022-08-05T12:06:08;3.30;;;3.00;;
22937;SDS011;11634;42.734;23.298;2022-08-05T12:08:38;6.10;;;3.17;;
22937;SDS011;11634;42.734;23.298;2022-08-05T12:11:03;4.15;;;3.30;;
22937;SDS011;11634;42.734;23.298;2022-08-05T12:13:31;6.63;;;3.92;;
22937;SDS011;11634;42.734;23.298;2022-08-05T12:15:57;3.60;;;3.30;;
22937;SDS011;11634;42.734;23.298;2022-08-05T12:18:32;3.72;;;3.42;;
22937;SDS011;11634;42.734;23.298;2022-08-05T12:21:12;3.80;;;3.40;;
22937;SDS011;11634;42.734;23.298;2022-08-05T12:23:38;4.63;;;3.60;;
22937;SDS011;11634;42.734;23.298;2022-08-05T12:26:03;3.67;;;3.38;;
22937;SDS011;11634;42.734;23.298;2022-08-05T12:28:31;3.30;;;3.00;;
22937;SDS011;11634;42.734;23.298;2022-08-05T12:30:58;3.65;;;3.22;;
22937;SDS011;11634;42.734;23.298;2022-08-05T12:33:24;4.65;;;3.53;;
22937;SDS011;11634;42.734;23.298;2022-08-05T12:35:50;4.57;;;3.42;;
22937;SDS011;11634;42.734;23.298;2022-08-05T12:38:16;5.63;;;3.35;;
22937;SDS011;11634;42.734;23.298;2022-08-05T12:40:41;3.78;;;3.22;;
22937;SDS011;11634;42.734;23.298;2022-08-05T12:43:07;3.40;;;3.10;;
22937;SDS011;11634;42.734;23.298;2022-08-05T12:45:32;3.80;;;3.50;;
22937;SDS011;11634;42.734;23.298;2022-08-05T12:47:58;3.47;;;3.17;;
22937;SDS011;11634;42.734;23.298;2022-08-05T12:50:23;3.53;;;3.20;;
22937;SDS011;11634;42.734;23.298;2022-08-05T12:52:55;4.75;;;3.22;;
22937;SDS011;11634;42.734;23.298;2022-08-05T12:55:22;3.38;;;3.15;;
22937;SDS011;11634;42.734;23.298;2022-08-05T12:57:47;3.63;;;3.33;;
22937;SDS011;11634;42.734;23.298;2022-08-05T13:00:20;5.47;;;3.35;;
22937;SDS011;11634;42.734;23.298;2022-08-05T13:02:46;6.65;;;3.33;;
22937;SDS011;11634;42.734;23.298;2022-08-05T13:05:12;4.47;;;3.60;;
22937;SDS011;11634;42.734;23.298;2022-08-05T13:07:41;6.20;;;3.33;;
22937;SDS011;11634;42.734;23.298;2022-08-05T13:10:10;5.00;;;3.17;;
22937;SDS011;11634;42.734;23.298;2022-08-05T13:12:43;3.47;;;3.17;;
22937;SDS011;11634;42.734;23.298;2022-08-05T13:15:09;4.22;;;3.30;;
22937;SDS011;11634;42.734;23.298;2022-08-05T13:17:34;3.35;;;3.05;;
22937;SDS011;11634;42.734;23.298;2022-08-05T13:20:02;4.15;;;3.30;;
22937;SDS011;11634;42.734;23.298;2022-08-05T13:22:28;5.72;;;2.83;;
22937;SDS011;11634;42.734;23.298;2022-08-05T13:24:54;3.50;;;3.20;;
22937;SDS011;11634;42.734;23.298;2022-08-05T13:27:39;3.30;;;3.00;;
22937;SDS011;11634;42.734;23.298;2022-08-05T13:30:08;3.42;;;3.00;;
22937;SDS011;11634;42.734;23.298;2022-08-05T13:32:33;4.07;;;3.22;;
22937;SDS011;11634;42.734;23.298;2022-08-05T13:34:59;3.47;;;2.72;;
22937;SDS011;11634;42.734;23.298;2022-08-05T13:37:25;3.47;;;2.90;;
22937;SDS011;11634;42.734;23.298;2022-08-05T13:39:51;4.85;;;2.83;;
22937;SDS011;11634;42.734;23.298;2022-08-05T13:42:21;3.65;;;2.90;;
22937;SDS011;11634;42.734;23.298;2022-08-05T13:44:51;3.50;;;3.20;;
22937;SDS011;11634;42.734;23.298;2022-08-05T13:47:17;3.67;;;3.25;;
22937;SDS011;11634;42.734;23.298;2022-08-05T13:49:44;3.95;;;2.97;;
22937;SDS011;11634;42.734;23.298;2022-08-05T13:52:11;4.05;;;2.80;;
22937;SDS011;11634;42.734;23.298;2022-08-05T13:54:37;3.35;;;3.05;;
22937;SDS011;11634;42.734;23.298;2022-08-05T13:57:03;4.90;;;3.00;;
22937;SDS011;11634;42.734;23.298;2022-08-05T13:59:28;4.05;;;3.00;;
22937;SDS011;11634;42.734;23.298;2022-08-05T14:01:54;3.97;;;2.95;;
22937;SDS011;11634;42.734;23.298;2022-08-05T14:04:26;4.15;;;2.90;;
22937;SDS011;11634;42.734;23.298;2022-08-05T14:07:10;2.88;;;2.67;;
22937;SDS011;11634;42.734;23.298;2022-08-05T14:09:35;3.10;;;2.78;;
22937;SDS011;11634;42.734;23.298;2022-08-05T14:12:02;3.50;;;3.20;;
22937;SDS011;11634;42.734;23.298;2022-08-05T14:14:31;3.20;;;2.80;;
22937;SDS011;11634;42.734;23.298;2022-08-05T14:16:59;3.55;;;3.25;;
22937;SDS011;11634;42.734;23.298;2022-08-05T14:19:24;4.50;;;2.92;;
22937;SDS011;11634;42.734;23.298;2022-08-05T14:21:50;3.88;;;3.05;;
22937;SDS011;11634;42.734;23.298;2022-08-05T14:24:15;2.83;;;2.63;;
22937;SDS011;11634;42.734;23.298;2022-08-05T14:26:41;3.05;;;2.80;;
22937;SDS011;11634;42.734;23.298;2022-08-05T14:29:06;3.60;;;2.95;;
22937;SDS011;11634;42.734;23.298;2022-08-05T14:31:32;3.10;;;2.90;;
22937;SDS011;11634;42.734;23.298;2022-08-05T14:33:57;3.00;;;2.80;;
22937;SDS011;11634;42.734;23.298;2022-08-05T14:36:23;3.45;;;3.15;;
22937;SDS011;11634;42.734;23.298;2022-08-05T14:38:49;3.33;;;2.80;;
22937;SDS011;11634;42.734;23.298;2022-08-05T14:41:14;2.83;;;2.63;;
22937;SDS011;11634;42.734;23.298;2022-08-05T14:43:40;2.80;;;2.60;;
22937;SDS011;11634;42.734;23.298;2022-08-05T14:46:06;2.92;;;2.67;;
22937;SDS011;11634;42.734;23.298;2022-08-05T14:48:31;3.22;;;2.92;;
22937;SDS011;11634;42.734;23.298;2022-08-05T14:50:56;3.20;;;2.90;;
22937;SDS011;11634;42.734;23.298;2022-08-05T14:53:23;2.75;;;2.55;;
22937;SDS011;11634;42.734;23.298;2022-08-05T14:55:50;4.22;;;2.88;;
22937;SDS011;11634;42.734;23.298;2022-08-05T14:58:15;2.92;;;2.72;;
22937;SDS011;11634;42.734;23.298;2022-08-05T15:00:41;3.38;;;2.85;;
22937;SDS011;11634;42.734;23.298;2022-08-05T15:03:06;3.20;;;2.90;;
22937;SDS011;11634;42.734;23.298;2022-08-05T15:05:35;3.35;;;2.78;;
22937;SDS011;11634;42.734;23.298;2022-08-05T15:08:03;2.70;;;2.47;;